createdAt,value
2023-03-20T00:02:18.938Z,100235.00
2023-03-20T00:07:20.617Z,100239.53
2023-03-20T00:12:25.428Z,100240.88
2023-03-20T00:17:26.985Z,100241.00
2023-03-20T00:22:29.430Z,100246.91
2023-03-20T00:27:31.004Z,100240.69
2023-03-20T00:32:32.734Z,100245.09
2023-03-20T00:37:34.343Z,100238.91
2023-03-20T00:42:36.580Z,100243.13
2023-03-20T00:47:40.908Z,100243.84
2023-03-20T00:52:42.572Z,100246.19
2023-03-20T00:57:50.311Z,100243.31
2023-03-20T01:02:54.738Z,100251.69
2023-03-20T01:07:59.382Z,100243.78
2023-03-20T01:13:01.762Z,100238.78
2023-03-20T01:18:03.497Z,100239.91
2023-03-20T01:23:05.817Z,100231.56
2023-03-20T01:28:22.719Z,100225.00
2023-03-20T01:33:26.522Z,100233.34
2023-03-20T01:38:30.352Z,100233.19
2023-03-20T01:43:35.874Z,100232.34
2023-03-20T01:48:52.623Z,100236.50
2023-03-20T01:54:08.333Z,100228.69
2023-03-20T01:59:17.626Z,100238.63
2023-03-20T02:04:23.927Z,100229.53
2023-03-20T02:09:30.256Z,100230.78
2023-03-20T02:14:33.606Z,100229.25
2023-03-20T02:20:02.899Z,100228.69
2023-03-20T02:25:20.647Z,100230.66
2023-03-20T02:30:29.196Z,100241.09
2023-03-20T02:36:00.886Z,100233.56
2023-03-20T02:41:09.176Z,100236.38
2023-03-20T02:46:13.597Z,100226.13
2023-03-20T02:51:28.305Z,100235.50
2023-03-20T02:56:36.241Z,100238.88
2023-03-20T03:01:44.116Z,100237.88
2023-03-20T03:06:47.539Z,100231.25
2023-03-20T03:11:59.008Z,100233.16
2023-03-20T03:17:02.476Z,100236.44
2023-03-20T03:22:04.616Z,100234.47
2023-03-20T03:27:13.714Z,100227.56
2023-03-20T03:32:37.080Z,100227.06
2023-03-20T03:38:02.521Z,100221.63
2023-03-20T03:43:11.593Z,100229.88
2023-03-20T03:48:18.924Z,100226.06
2023-03-20T03:53:25.346Z,100229.03
2023-03-20T03:58:27.417Z,100229.38
2023-03-20T04:03:33.074Z,100228.28
2023-03-20T04:08:34.746Z,100227.66
2023-03-20T04:13:36.374Z,100224.00
2023-03-20T04:18:38.095Z,100229.66
2023-03-20T04:23:39.729Z,100239.75
2023-03-20T04:28:41.380Z,100239.75
2023-03-20T04:33:55.470Z,100236.19
2023-03-20T04:39:07.757Z,100247.44
2023-03-20T04:44:09.446Z,100243.06
2023-03-20T04:49:11.283Z,100244.38
2023-03-20T04:54:13.125Z,100242.38
2023-03-20T04:59:15.199Z,100244.69
2023-03-20T05:04:17.113Z,100264.78
2023-03-20T05:09:19.073Z,100263.59
2023-03-20T05:14:22.473Z,100263.00
2023-03-20T05:19:44.534Z,100265.53
2023-03-20T05:24:52.451Z,100275.91
2023-03-20T05:30:14.176Z,100287.56
2023-03-20T05:35:19.186Z,100285.28
2023-03-20T05:40:32.678Z,100285.47
2023-03-20T05:46:06.997Z,100294.72
2023-03-20T05:51:28.857Z,100305.94
2023-03-20T05:56:37.995Z,100311.88
2023-03-20T06:01:56.520Z,100306.75
2023-03-20T06:07:06.262Z,100310.47
2023-03-20T06:12:08.285Z,100306.94
2023-03-20T06:17:10.291Z,100311.88
2023-03-20T06:22:12.152Z,100317.44
2023-03-20T06:27:13.779Z,100326.22
2023-03-20T06:32:17.288Z,100329.91
2023-03-20T06:37:21.959Z,100334.28
2023-03-20T06:42:24.030Z,100330.97
2023-03-20T06:47:26.153Z,100326.13
2023-03-20T06:52:27.807Z,100330.88
2023-03-20T06:57:52.230Z,100328.47
2023-03-20T07:02:54.472Z,100316.72
2023-03-20T07:07:56.801Z,100316.59
2023-03-20T07:12:58.424Z,100314.31
2023-03-20T07:18:00.233Z,100324.78
2023-03-20T07:23:02.857Z,100324.50
2023-03-20T07:28:07.624Z,100322.00
2023-03-20T07:33:11.297Z,100340.53
2023-03-20T07:38:14.013Z,100342.91
2023-03-20T07:43:29.455Z,100341.25
2023-03-20T07:49:07.950Z,100347.63
2023-03-20T07:54:09.599Z,100351.81
2023-03-20T07:59:13.070Z,100356.88
2023-03-20T08:04:14.805Z,100361.09
2023-03-20T08:09:17.011Z,100362.91
2023-03-20T08:14:18.650Z,100357.88
2023-03-20T08:19:20.248Z,100354.19
2023-03-20T08:24:22.503Z,100361.09
2023-03-20T08:29:24.098Z,100357.19
2023-03-20T08:34:26.379Z,100357.84
2023-03-20T08:39:27.974Z,100362.09
2023-03-20T08:44:29.555Z,100370.16
2023-03-20T08:49:31.738Z,100370.47
2023-03-20T08:54:34.254Z,100367.09
2023-03-20T08:59:36.063Z,100378.88
2023-03-20T09:04:37.877Z,100372.66
2023-03-20T09:09:39.467Z,100369.81
2023-03-20T09:14:41.803Z,100372.53
2023-03-20T09:19:44.748Z,100382.63
2023-03-20T09:24:46.571Z,100379.22
2023-03-20T09:29:48.178Z,100379.56
2023-03-20T09:34:49.765Z,100376.84
2023-03-20T09:39:51.307Z,100385.09
2023-03-20T09:45:12.220Z,100387.97
2023-03-20T09:50:25.964Z,100390.16
2023-03-20T09:55:33.567Z,100396.53
2023-03-20T10:00:36.712Z,100404.09
2023-03-20T10:06:20.212Z,100400.25
2023-03-20T10:11:39.843Z,100402.75
2023-03-20T10:17:05.157Z,100400.53
2023-03-20T10:22:15.463Z,100398.22
2023-03-20T10:27:28.230Z,100406.59
2023-03-20T10:32:36.498Z,100400.00
2023-03-20T10:37:55.865Z,100404.22
2023-03-20T10:43:03.678Z,100400.84
2023-03-20T10:48:12.848Z,100396.59
2023-03-20T10:53:22.915Z,100393.25
2023-03-20T10:58:27.009Z,100396.31
2023-03-20T11:03:30.718Z,100405.34
2023-03-20T11:08:41.375Z,100398.53
2023-03-20T11:13:43.507Z,100397.19
2023-03-20T11:18:46.491Z,100398.59
2023-03-20T11:23:48.516Z,100396.94
2023-03-20T11:29:00.180Z,100397.09
2023-03-20T11:34:04.417Z,100402.44
2023-03-20T11:39:22.352Z,100394.81
2023-03-20T11:44:28.312Z,100372.75
2023-03-20T11:49:31.332Z,100375.31
2023-03-20T11:54:32.968Z,100369.97
2023-03-20T11:59:36.272Z,100375.50
2023-03-20T12:04:41.959Z,100371.00
2023-03-20T12:09:53.181Z,100356.56
2023-03-20T12:15:28.967Z,100368.38
2023-03-20T12:20:41.760Z,100359.16
2023-03-20T12:25:54.877Z,100352.94
2023-03-20T12:31:05.627Z,100362.34
2023-03-20T12:36:14.128Z,100354.25
2023-03-20T12:41:25.261Z,100354.22
2023-03-20T12:46:44.800Z,100346.81
2023-03-20T12:52:10.369Z,100336.69
2023-03-20T12:57:24.019Z,100338.25
2023-03-20T13:02:40.674Z,100339.56
2023-03-20T13:08:04.093Z,100336.53
2023-03-20T13:13:18.440Z,100334.81
2023-03-20T13:18:38.468Z,100329.63
2023-03-20T13:24:11.630Z,100318.66
2023-03-20T13:29:14.357Z,100319.50
2023-03-20T13:34:31.987Z,100315.50
2023-03-20T13:40:03.074Z,100309.44
2023-03-20T13:45:22.079Z,100302.81
2023-03-20T13:50:43.415Z,100295.78
2023-03-20T13:55:49.652Z,100295.41
2023-03-20T14:01:05.597Z,100298.72
2023-03-20T14:06:37.477Z,100300.06
2023-03-20T14:11:39.065Z,100302.66
2023-03-20T14:16:41.355Z,100301.78
2023-03-20T14:21:47.717Z,100292.44
2023-03-20T14:26:51.187Z,100307.03
2023-03-20T14:31:52.798Z,100301.72
2023-03-20T14:37:05.454Z,100305.88
2023-03-20T14:42:16.281Z,100297.00
2023-03-20T14:47:31.641Z,100298.97
2023-03-20T14:53:06.406Z,100295.31
2023-03-20T14:58:33.508Z,100300.75
2023-03-20T15:03:36.409Z,100286.63
2023-03-20T15:08:44.382Z,100290.94
2023-03-20T15:13:47.358Z,100307.44
2023-03-20T15:18:52.592Z,100310.44
2023-03-20T15:23:54.166Z,100296.88
2023-03-20T15:29:01.546Z,100302.06
2023-03-20T15:34:07.062Z,100302.25
2023-03-20T15:39:15.378Z,100298.06
2023-03-20T15:44:20.305Z,100297.72
2023-03-20T15:49:22.404Z,100291.84
2023-03-20T15:54:24.324Z,100289.31
2023-03-20T15:59:28.103Z,100294.69
2023-03-20T16:04:29.798Z,100293.78
2023-03-20T16:09:31.647Z,100295.53
2023-03-20T16:14:33.737Z,100297.38
2023-03-20T16:19:35.350Z,100300.84
2023-03-20T16:24:38.758Z,100294.75
2023-03-20T16:29:43.328Z,100291.75
2023-03-20T16:34:49.627Z,100293.28
2023-03-20T16:40:11.762Z,100298.81
2023-03-20T16:45:31.476Z,100300.16
2023-03-20T16:50:40.447Z,100297.97
2023-03-20T16:55:44.458Z,100286.22
2023-03-20T17:01:01.880Z,100297.31
2023-03-20T17:06:29.335Z,100297.47
2023-03-20T17:11:36.026Z,100302.00
2023-03-20T17:16:40.143Z,100293.59
2023-03-20T17:21:42.135Z,100289.22
2023-03-20T17:26:49.009Z,100295.44
2023-03-20T17:31:50.762Z,100299.31
2023-03-20T17:36:52.531Z,100286.03
2023-03-20T17:41:54.171Z,100300.81
2023-03-20T17:46:58.791Z,100295.09
2023-03-20T17:52:00.987Z,100298.78
2023-03-20T17:57:02.635Z,100287.88
2023-03-20T18:02:04.333Z,100291.03
2023-03-20T18:07:07.036Z,100294.25
2023-03-20T18:12:15.595Z,100303.16
2023-03-20T18:17:17.517Z,100292.06
2023-03-20T18:22:19.129Z,100300.75
2023-03-20T18:27:20.739Z,100291.38
2023-03-20T18:32:22.532Z,100293.84
2023-03-20T18:37:24.137Z,100298.38
2023-03-20T18:42:25.732Z,100290.31
2023-03-20T18:47:27.296Z,100300.06
2023-03-20T18:52:28.896Z,100300.44
2023-03-20T18:57:30.496Z,100313.44
2023-03-20T19:02:32.835Z,100307.78
2023-03-20T19:07:34.487Z,100311.44
2023-03-20T19:12:37.107Z,100309.13
2023-03-20T19:17:39.035Z,100298.22
2023-03-20T19:22:40.685Z,100300.25
2023-03-20T19:27:43.623Z,100302.41
2023-03-20T19:32:45.430Z,100301.75
2023-03-20T19:37:47.064Z,100295.53
2023-03-20T19:43:01.492Z,100290.09
2023-03-20T19:48:06.938Z,100291.16
2023-03-20T19:53:10.080Z,100293.84
2023-03-20T19:58:12.542Z,100286.91
2023-03-20T20:03:20.344Z,100284.84
2023-03-20T20:08:44.233Z,100278.78
2023-03-20T20:14:04.109Z,100277.06
2023-03-20T20:19:05.846Z,100277.34
2023-03-20T20:24:07.656Z,100278.53
2023-03-20T20:29:09.721Z,100273.31
2023-03-20T20:39:32.902Z,100273.09
2023-03-20T20:44:35.229Z,100271.63
2023-03-20T20:49:36.828Z,100280.53
2023-03-20T20:54:41.603Z,100265.13
2023-03-20T20:59:43.258Z,100267.44
2023-03-20T21:04:44.996Z,100273.75
2023-03-20T21:09:47.068Z,100272.59
2023-03-20T21:14:50.487Z,100265.63
2023-03-20T21:19:52.343Z,100276.53
2023-03-20T21:25:11.026Z,100274.38
2023-03-20T21:30:15.560Z,100282.94
2023-03-20T21:35:17.305Z,100282.66
2023-03-20T21:40:18.902Z,100283.38
2023-03-20T21:51:07.282Z,100280.28
2023-03-20T22:07:28.590Z,100291.34
2023-03-20T22:12:53.546Z,100293.03
2023-03-20T22:18:05.831Z,100303.19
2023-03-20T22:44:53.740Z,100314.78
2023-03-20T22:49:44.143Z,100306.56
2023-03-20T22:54:45.721Z,100302.34
2023-03-20T22:59:47.548Z,100299.22
2023-03-20T23:04:49.485Z,100298.44
2023-03-20T23:09:51.250Z,100291.56
2023-03-20T23:14:54.436Z,100290.84
2023-03-20T23:20:08.643Z,100289.75
2023-03-20T23:25:18.701Z,100295.59
2023-03-20T23:30:33.958Z,100293.91
2023-03-20T23:35:39.371Z,100300.97
2023-03-20T23:40:41.451Z,100295.06
2023-03-20T23:45:43.046Z,100297.59
2023-03-20T23:50:52.916Z,100290.00
2023-03-20T23:55:56.670Z,100281.19
